Aéroport int. de Victoria, Colombie-Britannique

Conditions des dernières 24 heures

Date / Heure
(HAP)
Conditions Temp
(°F)
Humidité
(%)
Point de rosée
(°F)
Vent
(mph)
Pression (pouces) Visibilité
(miles)
17 avril 2015
20:00 Partiellement nuageux 56 64 44 SSE 8 30.3 30
19:00 Généralement nuageux 59 63 46 S 5 30.3 30
18:00 Généralement nuageux 62   55 46 SO 5 30.3 30
17:00 Généralement nuageux 62   55 46 ENE 6 30.3 30
16:00 Généralement nuageux 61 59 47 ENE 9 30.3 30
15:00 Partiellement nuageux 62   56 47 ENE 7 30.3 30
14:00 Partiellement nuageux 61 62 48 E 6 30.3 30
13:00 Généralement ensoleillé 59 59 45 SE 7 30.3 30
12:00 Généralement ensoleillé 58 63 46 ENE 7 30.3 30
11:00 Généralement ensoleillé 58 65 46 E 6 30.3 30
10:00 Généralement ensoleillé 55 72 46 O 3 30.3 30
9:00 Généralement nuageux 51 82 46 O 6 30.3 30
8:00 Généralement nuageux 48 89 45 OSO 2 30.3 30
7:00 Généralement nuageux 48 86 44 calme 30.2 30
6:00 Généralement nuageux 48 88 44 O 10 30.3 30
5:00 Généralement nuageux 44 92 42 OSO 6 30.2 30
4:00 Généralement nuageux 46 92 43 O 7 30.2 30
3:00 Généralement nuageux 46 91 44 OSO 7 30.2 30
2:00 Généralement dégagé 44 90 42 OSO 5 30.2 30
1:00 Dégagé 42   93 41 OSO 6 30.2 30
0:00 Dégagé 44 88 41 OSO 2 30.2 30
16 avril 2015
23:00 Dégagé 44 86 41 OSO 3 30.2 30
22:00 Dégagé 45 85 41 O 3 30.2 30
21:00 Généralement dégagé 50 73 42 ESE 2 30.2 30
20:00 Généralement ensoleillé 55 58 41 SE 3 30.2 30
N.D. non disponible
↑ température la plus haute
↓ température la plus basse

Si vous désirez plus de données historiques sur les conditions météo, s.v.p. visitez Données climatologiques en ligne.

Ce que nous faisons

Date de modification :